Time;durP1;ratioP1;P1;durP2;ratioP2;P2;SDS_P1;SDS_P2;PMS_P1;PMS_P2;Temp;Humidity;BMP_temperature;BMP_pressure;BME280_temperature;BME280_humidity;BME280_pressure;Samples;Min_cycle;Max_cycle;Signal;HPM_P1;HPM_P2
2023/03/18 00:02:18;;;;;;;9.95;4.50;;;;;;;9.29;43.48;100634.28;5054962;28;20063;-70
2023/03/18 00:04:45;;;;;;;10.98;5.50;;;;;;;9.53;43.14;100634.25;5057991;28;20085;-70
2023/03/18 00:07:10;;;;;;;7.43;4.95;;;;;;;9.15;43.87;100631.38;5056506;28;20031;-70
2023/03/18 00:09:36;;;;;;;7.90;5.38;;;;;;;9.36;43.34;100635.75;5056179;28;20051;-70
2023/03/18 00:12:03;;;;;;;10.30;6.00;;;;;;;9.18;43.74;100631.25;5059074;28;20032;-71
2023/03/18 00:14:28;;;;;;;13.18;4.82;;;;;;;9.29;43.51;100623.88;5057206;28;20052;-69
2023/03/18 00:16:55;;;;;;;12.07;5.63;;;;;;;9.57;43.16;100630.63;5059053;28;20036;-69
2023/03/18 00:19:20;;;;;;;7.82;4.72;;;;;;;9.47;43.29;100632.72;5058349;28;20043;-71
2023/03/18 00:21:46;;;;;;;10.45;5.80;;;;;;;9.44;43.35;100626.81;5059523;28;20032;-74
2023/03/18 00:24:11;;;;;;;7.50;5.43;;;;;;;9.52;43.04;100624.72;5057006;28;20131;-73
2023/03/18 00:26:37;;;;;;;6.63;4.80;;;;;;;9.70;42.80;100625.75;5057400;28;20034;-72
2023/03/18 00:29:03;;;;;;;9.57;5.72;;;;;;;9.65;42.87;100631.16;5058050;28;20601;-70
2023/03/18 00:31:29;;;;;;;10.85;5.40;;;;;;;9.24;43.87;100624.97;5057980;28;20094;-71
2023/03/18 00:33:56;;;;;;;8.57;5.57;;;;;;;9.15;44.04;100631.38;5056412;28;20028;-71
2023/03/18 00:36:24;;;;;;;8.48;4.85;;;;;;;9.33;43.64;100637.66;5048630;28;20039;-70
2023/03/18 00:38:56;;;;;;;7.70;5.80;;;;;;;9.49;43.65;100630.91;5056542;28;20032;-70
2023/03/18 00:41:26;;;;;;;7.32;4.85;;;;;;;9.60;42.76;100633.09;5056073;28;20136;-73
2023/03/18 00:43:53;;;;;;;8.05;4.78;;;;;;;9.45;43.27;100631.09;5055060;28;20024;-72
2023/03/18 00:46:21;;;;;;;7.55;4.80;;;;;;;9.27;43.90;100633.50;5054783;28;20028;-73
2023/03/18 00:48:47;;;;;;;9.40;5.20;;;;;;;9.16;44.09;100633.94;5040869;28;20036;-72
2023/03/18 00:51:15;;;;;;;7.30;4.45;;;;;;;9.37;43.40;100637.47;5055907;28;20369;-71
2023/03/18 00:53:43;;;;;;;8.55;4.50;;;;;;;9.09;44.01;100634.22;5056319;28;20033;-73
2023/03/18 00:56:10;;;;;;;11.75;4.85;;;;;;;9.27;43.86;100628.28;5035388;28;20555;-73
2023/03/18 00:58:36;;;;;;;7.35;4.07;;;;;;;9.32;43.48;100639.41;5046441;28;20081;-70
2023/03/18 01:01:04;;;;;;;8.32;3.90;;;;;;;9.24;43.79;100631.03;5053733;28;20562;-72
2023/03/18 01:03:30;;;;;;;5.75;3.50;;;;;;;9.40;43.35;100639.94;5057555;28;20886;-70
2023/03/18 01:06:03;;;;;;;7.15;4.05;;;;;;;9.39;43.70;100638.25;5055081;28;20039;-75
2023/03/18 01:08:29;;;;;;;8.93;3.92;;;;;;;9.59;43.33;100637.47;5039794;28;20511;-75
2023/03/18 01:10:55;;;;;;;6.97;3.60;;;;;;;9.25;43.63;100639.69;5024035;28;20045;-76
2023/03/18 01:13:22;;;;;;;6.95;4.13;;;;;;;9.55;42.87;100630.69;5040799;28;20062;-76
2023/03/18 01:15:49;;;;;;;5.88;3.70;;;;;;;9.60;42.98;100627.88;5055853;28;20553;-75
2023/03/18 01:18:15;;;;;;;7.07;3.72;;;;;;;9.79;42.56;100623.66;5056296;28;20494;-76
2023/03/18 01:20:43;;;;;;;11.90;4.47;;;;;;;9.58;43.22;100627.09;5055632;28;20042;-75
2023/03/18 01:23:11;;;;;;;4.97;3.80;;;;;;;9.74;43.01;100622.94;5040412;28;20055;-73
2023/03/18 01:25:38;;;;;;;6.40;3.33;;;;;;;9.19;44.14;100623.38;5036944;28;20040;-72
2023/03/18 01:28:05;;;;;;;5.00;2.90;;;;;;;9.29;43.83;100628.25;5038561;28;20538;-76
2023/03/18 01:30:30;;;;;;;5.15;3.60;;;;;;;9.35;44.10;100625.41;5055783;28;20296;-71
2023/03/18 01:32:56;;;;;;;6.80;3.80;;;;;;;9.33;43.89;100641.09;5056497;28;20028;-72
2023/03/18 01:35:24;;;;;;;6.68;3.88;;;;;;;9.03;44.54;100632.69;5037093;28;20044;-73
2023/03/18 01:37:52;;;;;;;7.03;3.80;;;;;;;8.66;45.72;100627.94;5056029;28;20381;-73
2023/03/18 01:40:19;;;;;;;6.03;3.30;;;;;;;8.66;45.54;100630.56;5043391;28;20036;-72
2023/03/18 01:42:54;;;;;;;5.78;3.63;;;;;;;8.73;45.62;100626.84;5043824;28;20033;-74
2023/03/18 01:45:27;;;;;;;5.13;3.00;;;;;;;9.10;44.53;100628.94;5053592;28;20044;-73
2023/03/18 01:47:57;;;;;;;4.53;3.45;;;;;;;8.87;45.17;100640.22;5029413;28;20430;-66
2023/03/18 01:50:34;;;;;;;6.10;3.08;;;;;;;9.18;44.53;100632.09;5036829;28;20076;-67
2023/03/18 01:53:05;;;;;;;9.23;3.60;;;;;;;9.12;44.34;100636.69;5046935;28;20033;-66
2023/03/18 01:55:32;;;;;;;7.80;3.10;;;;;;;8.54;45.71;100640.50;5053182;28;20051;-67
2023/03/18 01:58:02;;;;;;;5.07;3.50;;;;;;;9.09;44.52;100639.44;5056792;28;20085;-66
2023/03/18 02:00:28;;;;;;;7.20;3.95;;;;;;;9.02;45.31;100633.59;5045176;28;20047;-67
2023/03/18 02:02:54;;;;;;;4.95;3.42;;;;;;;8.77;45.92;100633.66;5039209;28;20032;-68
2023/03/18 02:05:24;;;;;;;6.93;3.55;;;;;;;8.74;45.97;100631.16;5038366;28;20504;-66
2023/03/18 02:07:51;;;;;;;5.65;3.25;;;;;;;8.85;45.85;100622.94;5044369;28;20076;-67
2023/03/18 02:10:29;;;;;;;3.72;2.75;;;;;;;9.11;45.18;100619.38;5043738;28;20033;-67
2023/03/18 02:12:59;;;;;;;10.13;3.10;;;;;;;8.96;45.71;100623.38;5043388;28;20063;-77
2023/03/18 02:15:32;;;;;;;6.25;3.08;;;;;;;9.28;45.10;100616.97;5049159;28;20042;-77
2023/03/18 02:18:08;;;;;;;4.53;2.90;;;;;;;9.23;45.07;100621.53;5034359;28;20056;-76
2023/03/18 02:21:07;;;;;;;4.82;2.72;;;;;;;9.09;45.46;100623.78;5046371;28;20062;-77
2023/03/18 02:23:42;;;;;;;5.05;2.85;;;;;;;9.19;45.12;100618.16;5039805;28;20024;-76
2023/03/18 02:26:49;;;;;;;7.80;3.72;;;;;;;9.21;45.26;100625.94;5047448;28;20408;-76
2023/03/18 02:29:20;;;;;;;4.45;2.17;;;;;;;9.30;45.04;100628.19;4940808;28;20042;-76
2023/03/18 02:31:55;;;;;;;8.07;3.55;;;;;;;9.25;45.20;100626.66;5030285;28;20044;-77
2023/03/18 02:34:24;;;;;;;4.30;2.40;;;;;;;9.35;44.78;100628.00;5040558;28;20106;-76
2023/03/18 02:36:52;;;;;;;4.53;2.90;;;;;;;9.21;45.39;100631.16;5048040;28;20113;-76
2023/03/18 02:39:17;;;;;;;7.22;3.40;;;;;;;9.00;45.73;100627.59;5036264;28;20664;-75
2023/03/18 02:41:43;;;;;;;5.55;2.63;;;;;;;9.27;45.36;100625.69;5048514;28;20045;-75
2023/03/18 02:44:12;;;;;;;5.82;2.45;;;;;;;9.35;45.04;100631.47;5024629;28;20021;-75
2023/03/18 02:46:54;;;;;;;6.68;2.45;;;;;;;9.10;45.55;100618.53;5044190;28;20036;-75
2023/03/18 02:49:22;;;;;;;5.00;2.67;;;;;;;9.40;45.10;100626.06;5057703;28;20046;-75
2023/03/18 02:51:50;;;;;;;4.82;2.78;;;;;;;9.17;45.41;100624.34;5045071;28;20839;-75
2023/03/18 02:54:22;;;;;;;5.03;2.55;;;;;;;9.03;45.85;100630.09;5045859;28;20051;-75
2023/03/18 02:56:48;;;;;;;8.75;2.42;;;;;;;9.06;45.76;100636.94;5049389;28;20089;-75
2023/03/18 02:59:14;;;;;;;7.53;3.15;;;;;;;9.01;45.91;100644.06;5040149;28;20043;-75
2023/03/18 03:01:42;;;;;;;7.03;3.13;;;;;;;8.79;46.46;100644.03;5060980;28;20033;-75
2023/03/18 03:04:08;;;;;;;8.02;3.28;;;;;;;8.61;47.29;100646.34;5059035;28;20028;-75
2023/03/18 03:06:35;;;;;;;4.47;2.40;;;;;;;8.96;46.16;100647.72;5066392;28;21691;-75
2023/03/18 03:09:03;;;;;;;8.43;2.90;;;;;;;8.83;46.42;100646.47;5064136;28;20040;-74
2023/03/18 03:11:28;;;;;;;4.32;3.10;;;;;;;8.90;46.52;100644.47;5063181;28;20028;-75
2023/03/18 03:13:59;;;;;;;3.35;2.75;;;;;;;8.61;47.21;100645.50;5048687;28;20400;-75
2023/03/18 03:16:25;;;;;;;4.72;2.63;;;;;;;8.13;48.56;100642.75;5051766;28;20051;-75
2023/03/18 03:18:53;;;;;;;6.53;2.80;;;;;;;8.39;47.66;100655.81;5048116;28;23206;-75
2023/03/18 03:21:18;;;;;;;12.35;3.28;;;;;;;8.35;48.06;100655.06;5063927;28;20030;-75
2023/03/18 03:23:46;;;;;;;8.93;3.47;;;;;;;8.59;47.54;100657.72;5048179;28;20516;-75
2023/03/18 03:26:14;;;;;;;3.85;2.90;;;;;;;8.38;48.11;100659.31;5053347;28;20055;-76
2023/03/18 03:28:41;;;;;;;7.00;3.70;;;;;;;8.13;48.54;100666.19;5065540;28;20029;-74
2023/03/18 03:31:08;;;;;;;7.43;3.22;;;;;;;8.04;48.78;100670.84;5063496;28;20040;-73
2023/03/18 03:33:36;;;;;;;6.85;3.03;;;;;;;8.28;48.05;100674.41;5044194;28;20135;-73
2023/03/18 03:36:01;;;;;;;9.57;4.00;;;;;;;8.28;48.45;100666.59;5065224;28;20046;-71
2023/03/18 03:38:27;;;;;;;9.07;4.40;;;;;;;8.56;47.86;100672.56;5052327;28;20032;-71
2023/03/18 03:40:53;;;;;;;9.13;3.90;;;;;;;8.36;48.13;100683.66;5047338;28;20036;-71
2023/03/18 03:43:19;;;;;;;7.60;3.92;;;;;;;8.47;48.36;100677.22;5063908;28;20525;-71
2023/03/18 03:45:45;;;;;;;9.50;4.82;;;;;;;8.33;48.74;100680.28;5063475;28;20056;-74
2023/03/18 03:48:11;;;;;;;9.57;4.22;;;;;;;8.48;48.33;100687.59;5066759;28;20033;-74
2023/03/18 03:50:38;;;;;;;10.63;5.07;;;;;;;8.67;47.63;100686.94;5051138;28;20044;-74
2023/03/18 03:53:05;;;;;;;6.72;4.60;;;;;;;8.57;48.12;100689.03;5048584;28;20542;-72
2023/03/18 03:55:32;;;;;;;9.40;4.35;;;;;;;8.40;49.03;100688.75;5057742;28;20036;-73
2023/03/18 03:57:58;;;;;;;18.08;8.13;;;;;;;7.93;50.57;100687.66;5050400;28;20035;-73
2023/03/18 04:00:25;;;;;;;8.00;5.47;;;;;;;8.18;50.40;100693.81;5050551;28;20040;-72
2023/03/18 04:02:51;;;;;;;10.68;5.78;;;;;;;8.31;49.88;100697.72;5062648;28;20121;-77
2023/03/18 04:05:21;;;;;;;10.55;6.40;;;;;;;8.31;49.91;100706.38;5052146;28;20047;-77
2023/03/18 04:07:47;;;;;;;12.05;6.50;;;;;;;8.22;50.43;100703.25;5050412;28;20119;-77
2023/03/18 04:10:15;;;;;;;9.65;6.75;;;;;;;8.56;49.19;100705.56;5047030;28;20624;-77
2023/03/18 04:12:41;;;;;;;10.45;6.65;;;;;;;8.02;50.90;100704.72;5037652;28;20182;-76
2023/03/18 04:15:08;;;;;;;14.70;7.90;;;;;;;8.14;50.94;100708.72;5055194;28;20119;-76
2023/03/18 04:17:35;;;;;;;13.30;7.45;;;;;;;8.22;50.60;100711.06;5051695;28;20047;-76
2023/03/18 04:20:02;;;;;;;15.88;8.05;;;;;;;8.31;50.39;100715.94;5050376;28;20080;-76
2023/03/18 04:22:30;;;;;;;15.55;7.40;;;;;;;8.17;50.85;100707.75;5051545;28;21508;-76
2023/03/18 04:24:56;;;;;;;18.63;8.88;;;;;;;8.25;50.24;100717.03;5047713;28;20040;-77
2023/03/18 04:27:22;;;;;;;15.77;8.25;;;;;;;8.07;50.79;100713.25;5061907;28;20059;-75
2023/03/18 04:29:48;;;;;;;12.63;8.88;;;;;;;7.95;51.25;100711.03;5051077;28;20493;-75
2023/03/18 04:32:15;;;;;;;17.73;8.70;;;;;;;7.87;51.31;100718.22;5050293;28;20588;-76
2023/03/18 04:34:41;;;;;;;14.55;8.00;;;;;;;7.87;51.37;100726.91;5044220;28;20041;-76
2023/03/18 04:37:08;;;;;;;12.98;8.38;;;;;;;7.99;50.64;100725.66;5053947;28;20070;-76
2023/03/18 04:39:35;;;;;;;13.73;8.63;;;;;;;7.82;51.27;100725.31;5043446;28;21888;-76
2023/03/18 04:42:00;;;;;;;18.02;9.63;;;;;;;7.91;51.17;100732.84;5050141;28;21006;-72
2023/03/18 04:44:26;;;;;;;21.00;9.75;;;;;;;7.64;51.73;100724.97;5047071;28;20067;-72
2023/03/18 04:46:52;;;;;;;22.13;10.27;;;;;;;7.50;52.52;100730.56;5036275;28;20067;-73
2023/03/18 04:49:19;;;;;;;16.25;10.05;;;;;;;7.58;51.99;100735.59;5048893;28;20056;-71
2023/03/18 04:51:45;;;;;;;19.17;10.38;;;;;;;7.58;51.91;100735.59;5048419;28;20031;-72
2023/03/18 04:54:20;;;;;;;17.10;11.18;;;;;;;7.44;52.66;100737.69;5058823;28;20124;-67
2023/03/18 04:56:47;;;;;;;17.73;11.50;;;;;;;7.51;52.59;100741.81;5052404;28;20028;-67
2023/03/18 04:59:13;;;;;;;18.65;11.10;;;;;;;7.67;51.85;100740.53;5045973;28;20548;-65
2023/03/18 05:01:38;;;;;;;17.67;11.30;;;;;;;7.63;52.08;100749.31;5058575;28;20061;-70
2023/03/18 05:04:05;;;;;;;19.58;11.70;;;;;;;7.37;52.88;100744.81;5077293;28;20077;-70
2023/03/18 05:06:40;;;;;;;21.20;12.32;;;;;;;7.49;52.53;100748.84;5077323;28;20171;-71
2023/03/18 05:09:11;;;;;;;23.30;13.30;;;;;;;7.67;51.95;100744.88;5052243;28;20036;-72
2023/03/18 05:11:37;;;;;;;25.90;12.65;;;;;;;7.33;52.84;100746.69;5058959;28;20113;-72
2023/03/18 05:14:12;;;;;;;21.58;11.88;;;;;;;7.52;52.32;100741.78;5047773;28;20049;-72
2023/03/18 05:16:44;;;;;;;21.88;13.75;;;;;;;7.45;52.30;100760.22;5045929;28;20028;-74
2023/03/18 05:19:10;;;;;;;23.88;13.73;;;;;;;7.54;52.69;100749.56;5045939;28;20692;-73
2023/03/18 05:21:41;;;;;;;26.23;14.95;;;;;;;7.33;53.08;100759.69;5043339;28;20143;-71
2023/03/18 05:24:08;;;;;;;24.90;13.95;;;;;;;7.30;53.40;100757.16;5050766;28;20405;-71
2023/03/18 05:26:37;;;;;;;26.45;14.73;;;;;;;6.78;54.75;100758.56;5044865;28;20024;-73
2023/03/18 05:29:03;;;;;;;22.83;12.98;;;;;;;7.21;53.67;100762.59;5044051;28;20039;-69
2023/03/18 05:31:37;;;;;;;28.98;14.45;;;;;;;7.49;53.08;100767.03;5044072;28;20304;-74
2023/03/18 05:34:03;;;;;;;26.15;15.85;;;;;;;7.18;53.18;100770.50;5047392;28;20542;-76
2023/03/18 05:36:33;;;;;;;27.45;14.65;;;;;;;6.95;54.71;100770.25;5032811;28;20048;-74
2023/03/18 05:39:05;;;;;;;27.55;15.15;;;;;;;6.86;55.00;100767.03;5062593;28;20028;-77
2023/03/18 05:41:31;;;;;;;25.25;14.43;;;;;;;7.14;54.01;100768.03;5034766;28;20594;-74
2023/03/18 05:43:57;;;;;;;24.27;15.07;;;;;;;7.05;54.03;100767.38;5049906;28;20903;-73
2023/03/18 05:46:25;;;;;;;24.05;15.57;;;;;;;6.83;54.77;100767.09;5046760;28;20050;-74
2023/03/18 05:49:01;;;;;;;23.40;14.27;;;;;;;7.05;54.64;100774.31;5044657;28;20047;-74
2023/03/18 05:51:31;;;;;;;30.38;15.90;;;;;;;7.12;54.57;100770.66;5034307;28;20029;-73
2023/03/18 05:53:58;;;;;;;25.08;14.35;;;;;;;7.25;54.13;100774.63;5051380;28;20037;-77
2023/03/18 05:56:30;;;;;;;26.70;15.32;;;;;;;7.05;54.81;100776.91;5052792;28;20036;-75
2023/03/18 05:58:58;;;;;;;25.48;14.75;;;;;;;7.30;54.13;100771.91;5048855;28;20085;-74
2023/03/18 06:01:37;;;;;;;24.45;15.80;;;;;;;7.28;54.26;100774.53;5043356;28;20023;-73
2023/03/18 06:04:05;;;;;;;30.60;16.60;;;;;;;7.16;54.27;100787.88;5029434;28;20036;-69
2023/03/18 06:06:31;;;;;;;32.78;16.52;;;;;;;7.33;53.84;100788.28;5037628;28;20059;-71
2023/03/18 06:08:59;;;;;;;28.90;16.65;;;;;;;7.30;53.98;100798.75;5040912;28;20626;-71
2023/03/18 06:11:25;;;;;;;34.30;15.75;;;;;;;7.30;54.36;100798.75;5046757;28;20028;-71
2023/03/18 06:13:52;;;;;;;32.92;16.00;;;;;;;7.33;53.74;100803.00;5047883;28;20035;-70
2023/03/18 06:16:18;;;;;;;29.33;15.88;;;;;;;7.74;52.62;100804.47;5046662;28;20025;-70
2023/03/18 06:18:43;;;;;;;28.33;16.55;;;;;;;7.51;53.65;100804.22;5044154;28;20036;-71
2023/03/18 06:21:13;;;;;;;25.35;14.93;;;;;;;7.43;53.96;100803.63;5058381;28;20582;-70
2023/03/18 06:23:38;;;;;;;29.67;16.55;;;;;;;6.79;55.36;100817.41;5039598;28;20109;-72
2023/03/18 06:26:06;;;;;;;26.17;16.42;;;;;;;7.62;54.11;100804.81;5033149;28;20422;-71
2023/03/18 06:28:36;;;;;;;25.85;15.10;;;;;;;7.79;53.38;100816.50;5044967;28;20078;-68
2023/03/18 06:31:09;;;;;;;31.55;15.63;;;;;;;7.53;53.62;100820.66;5027239;28;20036;-67
2023/03/18 06:33:35;;;;;;;24.33;15.80;;;;;;;7.72;53.28;100816.66;5035111;28;20033;-69
2023/03/18 06:36:01;;;;;;;29.33;16.50;;;;;;;7.69;53.78;100821.09;5045044;28;20113;-67
2023/03/18 06:38:28;;;;;;;30.40;16.85;;;;;;;7.79;53.59;100827.75;5037302;28;20032;-70
2023/03/18 06:40:56;;;;;;;25.35;16.00;;;;;;;7.24;54.61;100832.69;5040102;28;20098;-71
2023/03/18 06:43:21;;;;;;;32.50;17.25;;;;;;;7.53;54.58;100829.34;5058738;28;20039;-71
2023/03/18 06:45:48;;;;;;;31.48;17.65;;;;;;;7.39;54.93;100830.59;5041644;28;20547;-71
2023/03/18 06:48:14;;;;;;;32.72;17.42;;;;;;;7.90;53.96;100835.25;5063495;28;20036;-70
2023/03/18 06:50:42;;;;;;;26.15;16.17;;;;;;;7.67;54.47;100844.56;5053551;28;20465;-71
2023/03/18 06:53:18;;;;;;;31.42;17.88;;;;;;;8.09;53.23;100836.41;5048639;28;20146;-70
2023/03/18 06:55:45;;;;;;;27.90;17.25;;;;;;;7.98;53.24;100850.63;5046176;28;20106;-75
2023/03/18 06:58:11;;;;;;;31.42;17.73;;;;;;;7.94;53.56;100852.50;5061832;28;20533;-70
2023/03/18 07:00:46;;;;;;;29.65;17.80;;;;;;;8.06;53.53;100851.25;5039456;28;20402;-71
2023/03/18 07:03:18;;;;;;;31.50;16.73;;;;;;;8.18;53.10;100855.25;5047512;28;20059;-70
2023/03/18 07:05:43;;;;;;;29.88;17.23;;;;;;;8.20;52.98;100856.03;5055298;28;20136;-73
2023/03/18 07:08:10;;;;;;;25.38;16.00;;;;;;;8.08;53.38;100860.72;5058953;28;20028;-71
2023/03/18 07:10:35;;;;;;;32.80;17.17;;;;;;;8.29;52.91;100866.19;5040788;28;20047;-69
2023/03/18 07:13:09;;;;;;;30.50;16.50;;;;;;;8.14;53.08;100876.16;5050878;28;20032;-73
2023/03/18 07:15:38;;;;;;;26.20;16.30;;;;;;;7.65;55.18;100876.75;5040153;28;20036;-70
2023/03/18 07:18:05;;;;;;;30.88;16.00;;;;;;;7.95;54.14;100881.03;5050039;28;20028;-72
2023/03/18 07:20:36;;;;;;;32.10;16.73;;;;;;;7.56;55.45;100883.03;5055865;28;20574;-72
2023/03/18 07:23:02;;;;;;;32.78;17.77;;;;;;;8.04;54.14;100884.28;5050213;28;20044;-73
2023/03/18 07:25:29;;;;;;;36.22;17.38;;;;;;;7.73;54.45;100888.63;5059866;28;20199;-74
2023/03/18 07:27:55;;;;;;;27.77;16.35;;;;;;;8.22;53.70;100895.91;5065316;28;20103;-71
2023/03/18 07:30:21;;;;;;;28.65;17.35;;;;;;;7.77;55.29;100897.19;5053170;28;20170;-71
2023/03/18 07:32:48;;;;;;;28.08;16.90;;;;;;;8.31;54.06;100900.84;5063404;28;20515;-69
2023/03/18 07:35:14;;;;;;;27.08;15.02;;;;;;;8.28;54.07;100908.75;5053018;28;20047;-70
2023/03/18 07:37:42;;;;;;;29.77;14.57;;;;;;;7.98;54.77;100906.16;5059499;28;20032;-70
2023/03/18 07:40:10;;;;;;;24.05;13.70;;;;;;;8.42;54.04;100905.72;5063693;28;20039;-71
2023/03/18 07:42:39;;;;;;;22.63;13.80;;;;;;;8.60;52.54;100906.91;5045900;28;20048;-70
2023/03/18 07:45:06;;;;;;;22.38;13.27;;;;;;;8.33;53.18;100918.13;5062369;28;20055;-67
2023/03/18 07:47:33;;;;;;;26.05;13.15;;;;;;;8.23;53.32;100921.06;5061356;28;20033;-70
2023/03/18 07:49:59;;;;;;;23.38;13.48;;;;;;;8.60;53.12;100914.72;5062403;28;20036;-70
2023/03/18 07:52:24;;;;;;;23.48;15.30;;;;;;;8.88;52.14;100915.59;5062445;28;20086;-70
2023/03/18 07:54:51;;;;;;;28.13;14.50;;;;;;;8.44;53.22;100919.56;5059027;28;20040;-69
2023/03/18 07:57:17;;;;;;;27.40;14.82;;;;;;;8.75;52.56;100924.72;5063374;28;20040;-70
2023/03/18 07:59:42;;;;;;;19.95;13.43;;;;;;;8.19;54.52;100928.09;5058056;28;20036;-76
2023/03/18 08:02:13;;;;;;;26.15;13.82;;;;;;;8.62;53.32;100928.56;5050747;28;20414;-75
2023/03/18 08:04:39;;;;;;;19.17;12.52;;;;;;;8.66;53.38;100930.19;5059944;28;20036;-75
2023/03/18 08:07:05;;;;;;;25.00;13.68;;;;;;;9.08;52.42;100932.34;5064140;28;20032;-68
2023/03/18 08:09:31;;;;;;;25.73;15.13;;;;;;;9.72;50.60;100935.38;5060454;28;20049;-68
2023/03/18 08:11:57;;;;;;;26.45;13.85;;;;;;;9.95;50.95;100938.97;5040665;28;20060;-69
2023/03/18 08:14:23;;;;;;;21.27;12.95;;;;;;;9.85;50.50;100932.34;5057947;28;20077;-67
2023/03/18 08:16:48;;;;;;;23.73;14.65;;;;;;;10.44;48.86;100939.75;5060754;28;20131;-66
2023/03/18 08:19:14;;;;;;;19.70;13.15;;;;;;;13.14;44.42;100934.06;5046725;28;20061;-68
2023/03/18 08:21:40;;;;;;;21.92;13.23;;;;;;;13.87;42.69;100932.94;5044465;28;20512;-68
2023/03/18 08:24:06;;;;;;;20.13;12.07;;;;;;;13.83;41.22;100930.56;5055906;28;20028;-70
2023/03/18 08:26:31;;;;;;;17.35;10.27;;;;;;;12.90;42.71;100940.47;5058169;28;20158;-70
2023/03/18 08:28:57;;;;;;;23.17;11.25;;;;;;;11.99;44.68;100945.59;5054090;28;20493;-70
2023/03/18 08:31:23;;;;;;;18.35;11.50;;;;;;;10.60;47.87;100945.22;5056496;28;20515;-71
2023/03/18 08:33:52;;;;;;;16.42;9.68;;;;;;;10.72;48.14;100954.34;5056280;28;20032;-68
2023/03/18 08:36:19;;;;;;;22.42;12.38;;;;;;;9.60;50.89;100961.91;5055182;28;20092;-70
2023/03/18 08:38:44;;;;;;;23.48;12.52;;;;;;;10.11;49.91;100960.13;5054238;28;20529;-69
2023/03/18 08:41:10;;;;;;;17.85;10.40;;;;;;;9.21;52.88;100957.13;5058418;28;20107;-69
2023/03/18 08:43:35;;;;;;;15.00;8.70;;;;;;;9.69;52.05;100955.50;5056616;28;20043;-70
2023/03/18 08:46:01;;;;;;;18.00;9.60;;;;;;;9.26;53.01;100970.88;5055068;28;20036;-68
2023/03/18 08:48:26;;;;;;;14.77;7.63;;;;;;;9.55;52.09;100979.47;5059600;28;20039;-69
2023/03/18 08:50:52;;;;;;;14.25;7.57;;;;;;;9.22;53.31;100974.47;5056299;28;20702;-69
2023/03/18 08:53:18;;;;;;;14.90;7.30;;;;;;;9.35;53.27;100970.56;5055284;28;20580;-68
2023/03/18 08:55:45;;;;;;;17.63;9.50;;;;;;;9.72;52.10;100982.38;5055410;28;20688;-68
2023/03/18 08:58:11;;;;;;;15.20;8.68;;;;;;;9.36;52.77;100974.84;5057497;28;20151;-69
2023/03/18 09:00:39;;;;;;;21.60;11.18;;;;;;;9.80;51.87;100988.19;5055912;28;20069;-69
2023/03/18 09:03:05;;;;;;;19.13;10.93;;;;;;;9.79;51.93;100983.00;5055231;28;20032;-68
2023/03/18 09:05:33;;;;;;;19.33;12.05;;;;;;;9.62;52.21;100987.94;5056441;28;20090;-68
2023/03/18 09:07:59;;;;;;;26.45;11.82;;;;;;;9.92;51.38;100984.31;5042626;28;20051;-71
2023/03/18 09:10:25;;;;;;;23.38;14.02;;;;;;;9.75;51.30;100982.25;5056114;28;20090;-69
2023/03/18 09:12:51;;;;;;;20.70;11.00;;;;;;;10.02;51.09;100984.81;5054408;28;20044;-69
2023/03/18 09:15:19;;;;;;;23.95;12.50;;;;;;;9.79;51.28;100976.06;5054639;28;20052;-71
2023/03/18 09:17:45;;;;;;;22.17;12.88;;;;;;;9.63;52.05;100987.03;5053797;28;20091;-70
2023/03/18 09:20:13;;;;;;;20.27;11.95;;;;;;;10.42;50.47;100983.38;5056404;28;20062;-70
2023/03/18 09:22:40;;;;;;;23.95;13.00;;;;;;;10.67;49.11;100971.97;5037321;28;20036;-70
2023/03/18 09:25:07;;;;;;;23.95;12.00;;;;;;;10.76;49.24;100976.84;5059509;28;20622;-69
2023/03/18 09:27:33;;;;;;;25.08;13.75;;;;;;;10.78;49.26;100980.25;5058050;28;20213;-71
2023/03/18 09:29:58;;;;;;;22.83;13.40;;;;;;;11.00;48.62;100975.91;5054590;28;20046;-70
2023/03/18 09:32:24;;;;;;;26.63;13.68;;;;;;;11.14;47.97;100983.19;5056354;28;20412;-71
2023/03/18 09:34:50;;;;;;;24.30;13.90;;;;;;;11.39;47.47;100982.16;5054175;28;20043;-71
2023/03/18 09:37:17;;;;;;;23.77;12.93;;;;;;;11.04;48.20;100977.47;5057490;28;20024;-70
2023/03/18 09:39:43;;;;;;;26.98;14.43;;;;;;;11.73;47.42;100975.50;5053612;28;20355;-69
2023/03/18 09:42:40;;;;;;;22.30;11.48;;;;;;;11.37;48.00;100977.00;5057785;28;20093;-71
2023/03/18 09:45:54;;;;;;;24.20;13.43;;;;;;;11.83;47.67;100985.53;5054397;28;20044;-70
2023/03/18 09:48:38;;;;;;;19.27;12.35;;;;;;;11.97;47.17;100984.94;5037218;28;20040;-70
2023/03/18 09:51:55;;;;;;;22.92;12.95;;;;;;;12.72;44.93;100977.22;5051268;28;20074;-69
2023/03/18 09:54:44;;;;;;;21.15;12.20;;;;;;;14.67;42.62;100983.00;5006898;28;21295;-68
2023/03/18 09:57:18;;;;;;;20.58;11.25;;;;;;;14.83;39.94;100999.63;5056689;28;20048;-70
2023/03/18 09:59:49;;;;;;;21.08;10.82;;;;;;;14.96;39.48;100989.28;5048100;28;20059;-70
2023/03/18 10:02:38;;;;;;;19.35;10.85;;;;;;;14.65;40.40;100998.88;5052395;28;20529;-69
2023/03/18 10:05:29;;;;;;;18.75;10.45;;;;;;;14.76;40.39;100985.13;5052785;28;20044;-70
2023/03/18 10:08:03;;;;;;;17.15;9.85;;;;;;;15.41;40.34;100977.03;5054234;28;20791;-70
2023/03/18 10:10:37;;;;;;;19.88;10.43;;;;;;;15.33;39.08;100981.94;5051692;28;20090;-69
2023/03/18 10:13:24;;;;;;;15.60;9.35;;;;;;;14.96;39.86;100984.84;5054139;28;20109;-70
2023/03/18 10:15:55;;;;;;;18.83;9.15;;;;;;;14.69;40.38;100989.88;5051354;28;20102;-70
2023/03/18 10:18:29;;;;;;;13.25;8.00;;;;;;;14.73;40.42;100991.41;5055149;28;20154;-70
2023/03/18 10:21:16;;;;;;;13.85;8.35;;;;;;;13.98;41.22;101000.69;5050400;28;20044;-69
2023/03/18 10:24:28;;;;;;;17.65;9.13;;;;;;;13.70;42.18;100999.50;5053067;28;20028;-70
2023/03/18 10:27:08;;;;;;;13.73;8.57;;;;;;;13.87;41.71;101005.66;5005577;28;20179;-71
2023/03/18 10:29:56;;;;;;;19.45;8.60;;;;;;;13.98;41.13;101010.38;5053562;28;20155;-68
2023/03/18 10:33:06;;;;;;;13.30;9.27;;;;;;;14.20;42.01;101007.47;5062968;28;20969;-70
2023/03/18 10:36:04;;;;;;;10.68;7.63;;;;;;;14.26;40.83;100997.47;5033042;28;20552;-69
2023/03/18 10:38:35;;;;;;;12.70;8.45;;;;;;;14.06;41.16;101008.19;5060791;28;20135;-69
2023/03/18 10:41:00;;;;;;;14.02;7.80;;;;;;;13.11;42.83;100998.91;5053773;28;20188;-71
2023/03/18 10:43:31;;;;;;;12.35;6.07;;;;;;;13.52;42.43;101014.38;5054707;28;20278;-69
2023/03/18 10:46:06;;;;;;;14.48;6.68;;;;;;;13.53;42.10;101016.06;5033020;28;20404;-69
2023/03/18 10:48:44;;;;;;;16.13;6.13;;;;;;;13.28;42.33;101007.75;5053479;28;20261;-69
2023/03/18 10:51:30;;;;;;;12.25;6.47;;;;;;;13.81;41.93;101021.72;5035297;28;20113;-70
2023/03/18 10:54:03;;;;;;;9.13;5.85;;;;;;;14.03;41.50;101016.22;5052391;28;20064;-69
2023/03/18 10:56:28;;;;;;;18.70;8.52;;;;;;;13.24;42.93;101022.78;5054844;28;20564;-69
2023/03/18 10:58:55;;;;;;;17.42;7.93;;;;;;;13.14;42.16;101031.16;5050115;28;20023;-70
2023/03/18 11:01:24;;;;;;;11.35;6.55;;;;;;;13.06;42.78;101019.28;5056733;28;20031;-70
2023/03/18 11:03:56;;;;;;;9.80;7.32;;;;;;;13.11;42.20;101021.66;5055620;28;20036;-70
2023/03/18 11:06:40;;;;;;;10.15;6.45;;;;;;;13.00;42.98;101024.81;5057489;28;20131;-69
2023/03/18 11:09:09;;;;;;;13.68;7.35;;;;;;;12.68;43.88;101024.53;5056768;28;20074;-69
2023/03/18 11:11:39;;;;;;;13.27;7.50;;;;;;;12.85;43.92;101029.03;5057301;28;20554;-70
2023/03/18 11:14:07;;;;;;;11.88;7.50;;;;;;;13.36;42.45;101026.59;5054283;28;20142;-70
2023/03/18 11:16:57;;;;;;;12.85;7.00;;;;;;;13.70;42.70;101035.44;5057156;28;20037;-69
2023/03/18 11:19:31;;;;;;;12.40;6.65;;;;;;;13.79;41.86;101028.88;5057012;28;20032;-70
2023/03/18 11:22:23;;;;;;;11.10;6.55;;;;;;;14.15;41.08;101036.63;5054489;28;20127;-69
2023/03/18 11:25:04;;;;;;;16.05;7.32;;;;;;;13.48;42.02;101039.09;5052554;28;20047;-71
2023/03/18 11:27:38;;;;;;;10.35;7.78;;;;;;;13.53;42.74;101039.72;5057367;28;20038;-70
2023/03/18 11:30:10;;;;;;;14.93;7.93;;;;;;;13.23;42.84;101041.25;5034335;28;20705;-69
2023/03/18 11:32:36;;;;;;;13.68;7.75;;;;;;;12.67;44.50;101037.72;5047991;28;20139;-71
2023/03/18 11:35:07;;;;;;;14.35;7.72;;;;;;;13.69;41.82;101037.19;5055711;28;20574;-70